Flight Track Log - Related Links

Times and Time Zones

All times are in EDT time to prevent confusion due to time zone crossing. See the SWA1202 flight status page for this flight to view local times or setup timezone preferences in your user account.

Time Position Orientation Groundspeed Altitude Reporting Facility
EDT Latitude Longitude Course Direction KTS MPH feet Rate Location/Type
Thu 03:46:21 PM 35.0572 -106.5239 76° East 191 220 8,600  Level Albuquerque Center
Thu 03:47:22 PM 35.0958 -106.5736 314° West 272 313 10,900 2,132 Climbing Albuquerque Center
Thu 03:47:37 PM 35.0967 -106.5797 279° West 240 276 11,300 3,395 Climbing Albuquerque Center
Thu 03:48:38 PM 35.0989 -106.6956 271° West 279 321 15,200 3,220 Climbing Albuquerque Center
Thu 03:49:40 PM 35.1019 -106.8003 272° West 302 348 17,900 2,323 Climbing Albuquerque Center
Thu 03:50:42 PM 35.1033 -106.9272 271° West 363 418 20,000 2,565 Climbing Albuquerque Center
Thu 03:51:44 PM 35.1064 -107.0728 272° West 384 442 23,200 2,952 Climbing Albuquerque Center
Thu 03:52:46 PM 35.1083 -107.2042 271° West 389 448 26,100 2,419 Climbing Albuquerque Center
Thu 03:53:48 PM 35.1058 -107.3381 269° West 394 453 28,200 1,854 Climbing Albuquerque Center
Thu 03:54:49 PM 35.0953 -107.4767 265° West 404 465 29,900 2,000 Climbing Albuquerque Center
Thu 03:55:51 PM 35.0844 -107.6164 265° West 413 475 32,300 2,177 Climbing Albuquerque Center
Thu 03:56:53 PM 35.0756 -107.7519 265° West 405 466 34,400 1,839 Climbing Albuquerque Center
Thu 03:57:55 PM 35.0650 -107.8967 265° West 397 457 36,100 1,694 Climbing Albuquerque Center
Thu 03:58:57 PM 35.0553 -108.0444 265° West 392 451 37,900 1,597 Climbing Albuquerque Center
Thu 03:59:59 PM 35.0444 -108.1675 264° West 385 443 39,400 1,016 Climbing Albuquerque Center
Thu 04:01:01 PM 35.0356 -108.2908 265° West 381 438 40,000 290 Climbing Albuquerque Center
Thu 04:02:03 PM 35.0242 -108.4342 264° West 379 436 40,000  Level Albuquerque Center
Thu 04:03:05 PM 35.0156 -108.5586 265° West 383 441 40,000  Level Albuquerque Center
Thu 04:04:06 PM 35.0039 -108.7061 265° West 388 447 40,000  Level Albuquerque Center
Thu 04:05:08 PM 34.9936 -108.8319 264° West 389 448 40,000  Level Albuquerque Center
Thu 04:06:10 PM 34.9814 -108.9803 264° West 392 451 40,000  Level Albuquerque Center
Thu 04:07:12 PM 34.9714 -109.1075 265° West 393 452 40,000  Level Albuquerque Center
Thu 04:08:14 PM 34.9608 -109.2539 265° West 389 448 40,000  Level Albuquerque Center
Thu 04:09:16 PM 34.9531 -109.3789 266° West 387 445 40,000  Level Albuquerque Center
Thu 04:10:18 PM 34.9436 -109.5022 265° West 384 442 40,000  Level Albuquerque Center
Thu 04:11:20 PM 34.9331 -109.6436 265° West 377 434 40,000  Level Albuquerque Center
Thu 04:12:22 PM 34.9256 -109.7689 266° West 383 441 40,000  Level Albuquerque Center
Thu 04:13:23 PM 34.9153 -109.9147 265° West 385 443 40,000  Level Albuquerque Center
Thu 04:14:25 PM 34.9061 -110.0378 265° West 383 441 40,000  Level Albuquerque Center
Thu 04:15:27 PM 34.8978 -110.1819 266° West 382 440 40,000  Level Albuquerque Center
Thu 04:16:29 PM 34.8883 -110.3031 265° West 379 436 40,000  Level Albuquerque Center
Thu 04:17:31 PM 34.8769 -110.4453 264° West 378 435 40,000  Level Albuquerque Center
Thu 04:18:33 PM 34.8667 -110.5664 264° West 376 433 40,000  Level Albuquerque Center
Thu 04:19:35 PM 34.8567 -110.6894 264° West 380 437 40,000  Level Albuquerque Center
Thu 04:20:36 PM 34.8464 -110.8353 265° West 385 443 40,000  Level Albuquerque Center
Thu 04:21:38 PM 34.8369 -110.9611 265° West 388 447 40,000  Level Albuquerque Center
Thu 04:22:40 PM 34.8253 -111.1061 264° West 388 447 40,000  Level Albuquerque Center
Thu 04:23:42 PM 34.8144 -111.2372 264° West 390 449 40,000  Level Albuquerque Center
Thu 04:24:44 PM 34.8033 -111.3692 264° West 393 452 40,000  Level Albuquerque Center
Thu 04:25:46 PM 34.7892 -111.5028 263° West 398 458 40,000  Level Albuquerque Center
Thu 04:26:48 PM 34.7783 -111.6342 264° West 395 455 40,000  Level Albuquerque Center
Thu 04:27:50 PM 34.7669 -111.7653 264° West 392 451 40,000  Level Albuquerque Center
Thu 04:28:52 PM 34.7458 -111.9217 261° West 391 450 40,000  Level Albuquerque Center
Thu 04:29:54 PM 34.7267 -112.0528 260° West 394 453 40,000  Level Albuquerque Center
Thu 04:30:55 PM 34.7064 -112.1847 259° West 396 456 40,000  Level Albuquerque Center
Thu 04:31:58 PM 34.6861 -112.3175 260° West 399 459 40,000  Level Albuquerque Center
Thu 04:32:59 PM 34.6664 -112.4492 260° West 399 459 40,000  Level Albuquerque Center
Thu 04:34:01 PM 34.6464 -112.5817 260° West 398 458 40,000  Level Albuquerque Center
Thu 04:35:03 PM 34.6258 -112.7153 259° West 401 461 40,000  Level Albuquerque Center
Thu 04:36:05 PM 34.5997 -112.8767 259° West 404 465 40,000  Level Albuquerque Center
Thu 04:37:07 PM 34.5794 -113.0103 260° West 404 465 40,000  Level Albuquerque Center
Thu 04:38:09 PM 34.5586 -113.1447 259° West 405 466 40,000  Level Albuquerque Center
Thu 04:39:11 PM 34.5361 -113.2797 259° West 407 468 40,000  Level Albuquerque Center
Thu 04:41:00 PM 34.5151 -113.4087 259° West  Level FlightAware Approximate
Thu 04:44:20 PM 34.4261 -113.9692 258° West 406 467 40,000  Level Albuquerque Center
Thu 04:46:09 PM 34.3919 -114.2253 258° West 409 471 40,000  Level Los Angeles Center
Thu 04:47:00 PM 34.3864 -114.1958 258° West  Level FlightAware Approximate
Thu 04:47:11 PM 34.3731 -114.3608 260° West 410 472 40,000  Level Los Angeles Center
Thu 04:47:26 PM 34.3664 -114.4014 259° West 408 470 40,000  Level Albuquerque Center
Thu 04:48:00 PM 34.3730 -114.2532 258° West  Level FlightAware Approximate
Thu 04:48:13 PM 34.3544 -114.4961 261° West 410 472 40,000  Level Los Angeles Center
Thu 04:49:00 PM 34.3520 -114.3735 258° West  Level FlightAware Approximate
Thu 04:49:15 PM 34.3350 -114.6317 260° West 413 475 40,000  Level Los Angeles Center
Thu 04:50:17 PM 34.3158 -114.7658 260° West 408 470 40,000  Level Los Angeles Center
Thu 04:51:19 PM 34.2928 -114.9297 260° West 413 475 40,000  Level Los Angeles Center
Thu 04:52:22 PM 34.2728 -115.0653 260° West 413 475 40,000  Level Los Angeles Center
Thu 04:53:23 PM 34.2519 -115.2025 260° West 413 475 40,000 -293 Level Los Angeles Center
Thu 04:54:00 PM 34.2351 -115.0365 258° West  Level FlightAware Approximate
Thu 04:54:25 PM 34.2322 -115.3397 260° West 416 479 39,400  Level Los Angeles Center
Thu 04:55:28 PM 34.2111 -115.4764 259° West 414 476 38,400 -912 Descending Los Angeles Center
Thu 04:56:30 PM 34.1906 -115.6133 260° West 416 479 37,500 -968 Descending Los Angeles Center
Thu 04:57:32 PM 34.1658 -115.7753 260° West 413 475 36,400 -968 Descending Los Angeles Center
Thu 04:58:34 PM 34.1456 -115.9047 259° West 416 479 35,500 -1,355 Descending Los Angeles Center
Thu 04:59:36 PM 34.1233 -116.0536 260° West 423 487 33,600 -1,839 Descending Los Angeles Center
Thu 05:00:38 PM 34.1011 -116.1947 259° West 430 495 31,700 -1,839 Descending Los Angeles Center
Thu 05:01:40 PM 34.0781 -116.3392 259° West 439 505 29,800 -2,274 Descending Los Angeles Center
Thu 05:02:42 PM 34.0519 -116.5078 259° West 430 495 27,000 -2,419 Descending Los Angeles Center
Thu 05:03:44 PM 34.0311 -116.6403 259° West 411 473 24,800 -2,081 Descending Los Angeles Center
Thu 05:04:46 PM 34.0097 -116.7658 258° West 389 448 22,700 -2,032 Descending Los Angeles Center
Thu 05:05:48 PM 33.9906 -116.8869 259° West 372 428 20,600 -2,194 Descending Los Angeles Center
Thu 05:06:19 PM 33.9833 -116.9667 264° West 356 410 19,300 -2,041 Descending Southern California TRACON
Thu 05:07:25 PM 33.9500 -117.0833 251° West 347 399 17,300 -1,238 Descending Southern California TRACON
Thu 05:08:25 PM 33.9500 -117.2000 270° West 338 389 16,700 -1,100 Descending Southern California TRACON
Thu 05:09:25 PM 33.9333 -117.3167 260° West 329 379 15,100 -1,700 Descending Southern California TRACON
Thu 05:10:25 PM 33.9500 -117.4167 281° West 330 380 13,300 -1,800 Descending Southern California TRACON
Thu 05:11:25 PM 33.9833 -117.5167 292° West 319 367 11,500 -1,513 Descending Southern California TRACON
Thu 05:12:20 PM 34.0167 -117.6000 296° West 345 397 10,400 -835 Descending Southern California TRACON
Thu 05:13:20 PM 34.0167 -117.7000 270° West 277 319 9,900 -850 Descending Southern California TRACON
Thu 05:14:20 PM 34.0167 -117.7833 270° West 280 322 8,700 -1,250 Descending Southern California TRACON
Thu 05:15:20 PM 34.0000 -117.8833 259° West 282 325 7,400 -1,211 Descending Southern California TRACON
Thu 05:16:14 PM 34.0000 -117.9667 270° West 270 311 6,400 -1,053 Descending Southern California TRACON
Thu 05:17:14 PM 33.9833 -118.0667 259° West 267 307 5,400 -900 Descending Southern California TRACON
Thu 05:18:14 PM 33.9800 -118.1317 266° West 264 304 4,600 -1,033 Descending Los Angeles Center
Thu 05:19:16 PM 33.9725 -118.2103 263° West 246 283 3,300 -1,306 Descending Los Angeles Center
Thu 05:20:18 PM 33.9636 -118.2908 262° West 220 253 1,900 -1,065 Descending Los Angeles Center
Thu 05:21:20 PM 33.9581 -118.3414 262° West 181 208 1,100 -677 Descending Los Angeles Center
Thu 05:22:22 PM 33.9553 -118.3850 266° West 152 175 500 -435 Descending Los Angeles Center
Thu 05:23:24 PM 33.9486 -118.4350 261° West 145 167 200 -290 Descending Los Angeles Center

Login

Don't have an account? Register now (free) for customized features, flight alerts, and more!